sensor_id;sensor_type;location;lat;lon;timestamp;P1;durP1;ratioP1;P2;durP2;ratioP2
8293;SDS011;4185;41.506;24.938;2023-11-21T00:00:49;8.97;;;5.47;;
8293;SDS011;4185;41.506;24.938;2023-11-21T00:03:16;10.73;;;6.03;;
8293;SDS011;4185;41.506;24.938;2023-11-21T00:05:44;8.20;;;4.47;;
8293;SDS011;4185;41.506;24.938;2023-11-21T00:08:11;7.20;;;4.47;;
8293;SDS011;4185;41.506;24.938;2023-11-21T00:10:37;6.10;;;3.97;;
8293;SDS011;4185;41.506;24.938;2023-11-21T00:13:04;7.87;;;4.77;;
8293;SDS011;4185;41.506;24.938;2023-11-21T00:15:32;7.23;;;5.00;;
8293;SDS011;4185;41.506;24.938;2023-11-21T00:17:59;7.03;;;4.00;;
8293;SDS011;4185;41.506;24.938;2023-11-21T00:20:26;5.33;;;3.90;;
8293;SDS011;4185;41.506;24.938;2023-11-21T00:22:53;5.53;;;3.73;;
8293;SDS011;4185;41.506;24.938;2023-11-21T00:25:19;3.77;;;3.40;;
8293;SDS011;4185;41.506;24.938;2023-11-21T00:27:46;8.93;;;4.30;;
8293;SDS011;4185;41.506;24.938;2023-11-21T00:30:13;25.60;;;9.87;;
8293;SDS011;4185;41.506;24.938;2023-11-21T00:32:41;9.17;;;4.73;;
8293;SDS011;4185;41.506;24.938;2023-11-21T00:35:08;5.47;;;3.67;;
8293;SDS011;4185;41.506;24.938;2023-11-21T00:37:35;8.40;;;4.63;;
8293;SDS011;4185;41.506;24.938;2023-11-21T00:40:04;7.27;;;4.40;;
8293;SDS011;4185;41.506;24.938;2023-11-21T00:42:32;14.50;;;6.97;;
8293;SDS011;4185;41.506;24.938;2023-11-21T00:44:59;17.27;;;8.13;;
8293;SDS011;4185;41.506;24.938;2023-11-21T00:47:26;9.20;;;5.00;;
8293;SDS011;4185;41.506;24.938;2023-11-21T00:49:54;10.80;;;6.00;;
8293;SDS011;4185;41.506;24.938;2023-11-21T00:52:22;7.10;;;4.67;;
8293;SDS011;4185;41.506;24.938;2023-11-21T00:54:48;5.13;;;4.00;;
8293;SDS011;4185;41.506;24.938;2023-11-21T00:57:15;5.57;;;3.40;;
8293;SDS011;4185;41.506;24.938;2023-11-21T00:59:42;7.00;;;4.00;;
8293;SDS011;4185;41.506;24.938;2023-11-21T01:02:09;5.73;;;4.10;;
8293;SDS011;4185;41.506;24.938;2023-11-21T01:04:36;4.67;;;3.30;;
8293;SDS011;4185;41.506;24.938;2023-11-21T01:07:04;5.50;;;3.07;;
8293;SDS011;4185;41.506;24.938;2023-11-21T01:09:32;3.43;;;2.90;;
8293;SDS011;4185;41.506;24.938;2023-11-21T01:11:59;3.43;;;2.83;;
8293;SDS011;4185;41.506;24.938;2023-11-21T01:14:26;3.63;;;3.00;;
8293;SDS011;4185;41.506;24.938;2023-11-21T01:16:52;3.93;;;2.97;;
8293;SDS011;4185;41.506;24.938;2023-11-21T01:19:19;4.00;;;3.20;;
8293;SDS011;4185;41.506;24.938;2023-11-21T01:21:46;7.17;;;4.57;;
8293;SDS011;4185;41.506;24.938;2023-11-21T01:24:14;7.03;;;4.47;;
8293;SDS011;4185;41.506;24.938;2023-11-21T01:26:41;6.70;;;4.27;;
8293;SDS011;4185;41.506;24.938;2023-11-21T01:29:08;4.83;;;3.57;;
8293;SDS011;4185;41.506;24.938;2023-11-21T01:31:35;5.47;;;3.63;;
8293;SDS011;4185;41.506;24.938;2023-11-21T01:34:02;6.00;;;3.87;;
8293;SDS011;4185;41.506;24.938;2023-11-21T01:36:30;6.03;;;4.00;;
8293;SDS011;4185;41.506;24.938;2023-11-21T01:38:58;4.70;;;3.30;;
8293;SDS011;4185;41.506;24.938;2023-11-21T01:41:26;3.10;;;2.80;;
8293;SDS011;4185;41.506;24.938;2023-11-21T01:43:53;4.17;;;3.00;;
8293;SDS011;4185;41.506;24.938;2023-11-21T01:46:20;4.70;;;3.73;;
8293;SDS011;4185;41.506;24.938;2023-11-21T01:48:48;3.90;;;3.13;;
8293;SDS011;4185;41.506;24.938;2023-11-21T01:51:15;4.73;;;2.83;;
8293;SDS011;4185;41.506;24.938;2023-11-21T01:53:44;3.90;;;2.67;;
8293;SDS011;4185;41.506;24.938;2023-11-21T01:56:11;4.83;;;3.00;;
8293;SDS011;4185;41.506;24.938;2023-11-21T01:58:40;4.40;;;3.10;;
8293;SDS011;4185;41.506;24.938;2023-11-21T02:01:08;4.20;;;3.70;;
8293;SDS011;4185;41.506;24.938;2023-11-21T02:03:35;6.97;;;3.27;;
8293;SDS011;4185;41.506;24.938;2023-11-21T02:06:02;2.90;;;2.60;;
8293;SDS011;4185;41.506;24.938;2023-11-21T02:08:29;4.53;;;3.67;;
8293;SDS011;4185;41.506;24.938;2023-11-21T02:10:56;6.37;;;4.10;;
8293;SDS011;4185;41.506;24.938;2023-11-21T02:13:23;5.33;;;3.30;;
8293;SDS011;4185;41.506;24.938;2023-11-21T02:15:51;4.63;;;2.80;;
8293;SDS011;4185;41.506;24.938;2023-11-21T02:18:19;7.10;;;4.10;;
8293;SDS011;4185;41.506;24.938;2023-11-21T02:20:47;8.83;;;5.07;;
8293;SDS011;4185;41.506;24.938;2023-11-21T02:23:15;6.53;;;4.07;;
8293;SDS011;4185;41.506;24.938;2023-11-21T02:25:43;5.07;;;3.53;;
8293;SDS011;4185;41.506;24.938;2023-11-21T02:28:10;4.13;;;3.43;;
8293;SDS011;4185;41.506;24.938;2023-11-21T02:30:39;3.10;;;2.77;;
8293;SDS011;4185;41.506;24.938;2023-11-21T02:33:07;4.33;;;3.13;;
8293;SDS011;4185;41.506;24.938;2023-11-21T02:35:34;2.67;;;2.40;;
8293;SDS011;4185;41.506;24.938;2023-11-21T02:38:01;5.13;;;3.03;;
8293;SDS011;4185;41.506;24.938;2023-11-21T02:40:29;3.57;;;2.90;;
8293;SDS011;4185;41.506;24.938;2023-11-21T02:42:56;3.60;;;3.30;;
8293;SDS011;4185;41.506;24.938;2023-11-21T02:45:24;5.93;;;3.70;;
8293;SDS011;4185;41.506;24.938;2023-11-21T02:47:51;4.53;;;3.47;;
8293;SDS011;4185;41.506;24.938;2023-11-21T02:50:21;4.47;;;3.43;;
8293;SDS011;4185;41.506;24.938;2023-11-21T02:52:48;3.87;;;3.47;;
8293;SDS011;4185;41.506;24.938;2023-11-21T02:55:16;8.50;;;5.97;;
8293;SDS011;4185;41.506;24.938;2023-11-21T02:57:44;9.20;;;5.50;;
8293;SDS011;4185;41.506;24.938;2023-11-21T03:00:11;7.73;;;4.67;;
8293;SDS011;4185;41.506;24.938;2023-11-21T03:02:40;4.63;;;3.37;;
8293;SDS011;4185;41.506;24.938;2023-11-21T03:05:07;3.97;;;2.90;;
8293;SDS011;4185;41.506;24.938;2023-11-21T03:07:36;6.37;;;4.53;;
8293;SDS011;4185;41.506;24.938;2023-11-21T03:10:03;7.50;;;4.10;;
8293;SDS011;4185;41.506;24.938;2023-11-21T03:12:31;2.80;;;2.60;;
8293;SDS011;4185;41.506;24.938;2023-11-21T03:14:59;2.63;;;2.43;;
8293;SDS011;4185;41.506;24.938;2023-11-21T03:17:26;3.60;;;3.10;;
8293;SDS011;4185;41.506;24.938;2023-11-21T03:19:54;4.83;;;4.07;;
8293;SDS011;4185;41.506;24.938;2023-11-21T03:22:22;10.50;;;5.77;;
8293;SDS011;4185;41.506;24.938;2023-11-21T03:24:49;6.97;;;4.70;;
8293;SDS011;4185;41.506;24.938;2023-11-21T03:27:16;7.57;;;4.53;;
8293;SDS011;4185;41.506;24.938;2023-11-21T03:29:42;6.90;;;3.93;;
8293;SDS011;4185;41.506;24.938;2023-11-21T03:32:11;5.43;;;4.10;;
8293;SDS011;4185;41.506;24.938;2023-11-21T03:34:52;4.33;;;3.83;;
8293;SDS011;4185;41.506;24.938;2023-11-21T03:37:20;4.20;;;3.40;;
8293;SDS011;4185;41.506;24.938;2023-11-21T03:39:47;3.73;;;3.23;;
8293;SDS011;4185;41.506;24.938;2023-11-21T03:42:13;3.53;;;3.23;;
8293;SDS011;4185;41.506;24.938;2023-11-21T03:44:40;4.70;;;3.40;;
8293;SDS011;4185;41.506;24.938;2023-11-21T03:47:07;4.47;;;3.83;;
8293;SDS011;4185;41.506;24.938;2023-11-21T03:49:35;3.97;;;3.60;;
8293;SDS011;4185;41.506;24.938;2023-11-21T03:52:02;3.77;;;3.47;;
8293;SDS011;4185;41.506;24.938;2023-11-21T03:54:29;5.67;;;3.57;;
8293;SDS011;4185;41.506;24.938;2023-11-21T03:56:56;3.97;;;3.30;;
8293;SDS011;4185;41.506;24.938;2023-11-21T03:59:22;5.40;;;4.17;;
8293;SDS011;4185;41.506;24.938;2023-11-21T04:01:50;7.53;;;4.83;;
8293;SDS011;4185;41.506;24.938;2023-11-21T04:04:17;5.80;;;4.77;;
8293;SDS011;4185;41.506;24.938;2023-11-21T04:06:46;5.83;;;5.10;;
8293;SDS011;4185;41.506;24.938;2023-11-21T04:09:13;7.27;;;5.10;;
8293;SDS011;4185;41.506;24.938;2023-11-21T04:11:39;5.03;;;4.23;;
8293;SDS011;4185;41.506;24.938;2023-11-21T04:14:08;9.13;;;4.87;;
8293;SDS011;4185;41.506;24.938;2023-11-21T04:16:35;5.70;;;4.07;;
8293;SDS011;4185;41.506;24.938;2023-11-21T04:19:01;3.83;;;3.40;;
8293;SDS011;4185;41.506;24.938;2023-11-21T04:21:29;5.80;;;4.47;;
8293;SDS011;4185;41.506;24.938;2023-11-21T04:23:57;9.20;;;5.90;;
8293;SDS011;4185;41.506;24.938;2023-11-21T04:26:24;8.37;;;5.50;;
8293;SDS011;4185;41.506;24.938;2023-11-21T04:28:50;5.97;;;4.47;;
8293;SDS011;4185;41.506;24.938;2023-11-21T04:31:17;7.03;;;4.70;;
8293;SDS011;4185;41.506;24.938;2023-11-21T04:33:44;4.50;;;3.83;;
8293;SDS011;4185;41.506;24.938;2023-11-21T04:36:11;4.10;;;3.70;;
8293;SDS011;4185;41.506;24.938;2023-11-21T04:38:38;6.73;;;4.67;;
8293;SDS011;4185;41.506;24.938;2023-11-21T04:41:07;5.00;;;4.50;;
8293;SDS011;4185;41.506;24.938;2023-11-21T04:43:34;9.73;;;7.67;;
8293;SDS011;4185;41.506;24.938;2023-11-21T04:46:01;12.37;;;9.90;;
8293;SDS011;4185;41.506;24.938;2023-11-21T04:48:28;9.17;;;7.30;;
8293;SDS011;4185;41.506;24.938;2023-11-21T04:50:55;5.87;;;5.30;;
8293;SDS011;4185;41.506;24.938;2023-11-21T04:53:21;8.37;;;6.73;;
8293;SDS011;4185;41.506;24.938;2023-11-21T04:55:48;6.80;;;4.63;;
8293;SDS011;4185;41.506;24.938;2023-11-21T04:58:17;7.53;;;5.80;;
8293;SDS011;4185;41.506;24.938;2023-11-21T05:00:44;8.77;;;6.70;;
8293;SDS011;4185;41.506;24.938;2023-11-21T05:03:11;13.03;;;9.43;;
8293;SDS011;4185;41.506;24.938;2023-11-21T05:05:38;11.47;;;8.33;;
8293;SDS011;4185;41.506;24.938;2023-11-21T05:08:04;8.57;;;6.37;;
8293;SDS011;4185;41.506;24.938;2023-11-21T05:10:31;22.97;;;11.23;;
8293;SDS011;4185;41.506;24.938;2023-11-21T05:12:59;40.50;;;16.47;;
8293;SDS011;4185;41.506;24.938;2023-11-21T05:15:26;35.63;;;14.50;;
8293;SDS011;4185;41.506;24.938;2023-11-21T05:17:53;19.50;;;10.27;;
8293;SDS011;4185;41.506;24.938;2023-11-21T05:20:20;38.53;;;17.90;;
8293;SDS011;4185;41.506;24.938;2023-11-21T05:22:47;26.97;;;14.43;;
8293;SDS011;4185;41.506;24.938;2023-11-21T05:25:14;27.30;;;13.03;;
8293;SDS011;4185;41.506;24.938;2023-11-21T05:27:43;16.50;;;10.20;;
8293;SDS011;4185;41.506;24.938;2023-11-21T05:30:10;19.87;;;12.53;;
8293;SDS011;4185;41.506;24.938;2023-11-21T05:32:39;19.97;;;11.47;;
8293;SDS011;4185;41.506;24.938;2023-11-21T05:35:08;20.20;;;11.47;;
8293;SDS011;4185;41.506;24.938;2023-11-21T05:37:39;19.37;;;9.53;;
8293;SDS011;4185;41.506;24.938;2023-11-21T05:40:06;19.93;;;10.23;;
8293;SDS011;4185;41.506;24.938;2023-11-21T05:42:34;22.23;;;13.03;;
8293;SDS011;4185;41.506;24.938;2023-11-21T05:45:03;19.70;;;9.07;;
8293;SDS011;4185;41.506;24.938;2023-11-21T05:47:35;18.23;;;10.00;;
8293;SDS011;4185;41.506;24.938;2023-11-21T05:50:05;13.80;;;10.33;;
8293;SDS011;4185;41.506;24.938;2023-11-21T05:52:35;14.93;;;10.23;;
8293;SDS011;4185;41.506;24.938;2023-11-21T05:55:03;16.00;;;9.90;;
8293;SDS011;4185;41.506;24.938;2023-11-21T05:57:32;17.27;;;11.53;;
8293;SDS011;4185;41.506;24.938;2023-11-21T05:59:59;40.43;;;20.20;;
8293;SDS011;4185;41.506;24.938;2023-11-21T06:02:28;44.97;;;24.27;;
8293;SDS011;4185;41.506;24.938;2023-11-21T06:04:55;22.20;;;13.03;;
8293;SDS011;4185;41.506;24.938;2023-11-21T06:07:23;15.10;;;10.80;;
8293;SDS011;4185;41.506;24.938;2023-11-21T06:09:50;14.90;;;8.90;;
8293;SDS011;4185;41.506;24.938;2023-11-21T06:12:17;19.57;;;12.03;;
8293;SDS011;4185;41.506;24.938;2023-11-21T06:14:45;15.27;;;10.43;;
8293;SDS011;4185;41.506;24.938;2023-11-21T06:17:13;31.87;;;20.13;;
8293;SDS011;4185;41.506;24.938;2023-11-21T06:19:40;26.27;;;16.87;;
8293;SDS011;4185;41.506;24.938;2023-11-21T06:22:07;29.63;;;15.17;;
8293;SDS011;4185;41.506;24.938;2023-11-21T06:24:35;17.73;;;10.63;;
8293;SDS011;4185;41.506;24.938;2023-11-21T06:27:03;25.23;;;15.70;;
8293;SDS011;4185;41.506;24.938;2023-11-21T06:29:30;24.43;;;15.23;;
8293;SDS011;4185;41.506;24.938;2023-11-21T06:31:57;25.57;;;14.63;;
8293;SDS011;4185;41.506;24.938;2023-11-21T06:34:24;23.70;;;13.70;;
8293;SDS011;4185;41.506;24.938;2023-11-21T06:36:53;15.83;;;10.80;;
8293;SDS011;4185;41.506;24.938;2023-11-21T06:39:19;36.33;;;20.03;;
8293;SDS011;4185;41.506;24.938;2023-11-21T06:41:49;25.43;;;16.10;;
8293;SDS011;4185;41.506;24.938;2023-11-21T06:44:15;19.47;;;11.10;;
8293;SDS011;4185;41.506;24.938;2023-11-21T06:46:42;17.10;;;12.57;;
8293;SDS011;4185;41.506;24.938;2023-11-21T06:49:10;8.90;;;6.77;;
8293;SDS011;4185;41.506;24.938;2023-11-21T06:51:37;11.83;;;8.80;;
8293;SDS011;4185;41.506;24.938;2023-11-21T06:54:04;23.67;;;16.60;;
8293;SDS011;4185;41.506;24.938;2023-11-21T06:56:32;15.80;;;11.10;;
8293;SDS011;4185;41.506;24.938;2023-11-21T06:59:00;13.33;;;9.37;;
8293;SDS011;4185;41.506;24.938;2023-11-21T07:01:28;8.57;;;6.47;;
8293;SDS011;4185;41.506;24.938;2023-11-21T07:03:55;7.30;;;5.33;;
8293;SDS011;4185;41.506;24.938;2023-11-21T07:06:21;7.43;;;5.70;;
8293;SDS011;4185;41.506;24.938;2023-11-21T07:08:48;8.33;;;5.10;;
8293;SDS011;4185;41.506;24.938;2023-11-21T07:11:15;14.77;;;9.60;;
8293;SDS011;4185;41.506;24.938;2023-11-21T07:13:42;7.27;;;5.40;;
8293;SDS011;4185;41.506;24.938;2023-11-21T07:16:10;5.83;;;5.00;;
8293;SDS011;4185;41.506;24.938;2023-11-21T07:18:37;5.70;;;4.43;;
8293;SDS011;4185;41.506;24.938;2023-11-21T07:21:04;5.33;;;4.10;;
8293;SDS011;4185;41.506;24.938;2023-11-21T07:23:31;5.80;;;4.43;;
8293;SDS011;4185;41.506;24.938;2023-11-21T07:25:57;7.77;;;5.83;;
8293;SDS011;4185;41.506;24.938;2023-11-21T07:28:24;6.07;;;3.97;;
8293;SDS011;4185;41.506;24.938;2023-11-21T07:30:51;3.70;;;3.30;;
8293;SDS011;4185;41.506;24.938;2023-11-21T07:33:20;8.00;;;6.00;;
8293;SDS011;4185;41.506;24.938;2023-11-21T07:35:47;9.63;;;6.43;;
8293;SDS011;4185;41.506;24.938;2023-11-21T07:38:14;11.37;;;7.13;;
8293;SDS011;4185;41.506;24.938;2023-11-21T07:40:41;10.90;;;8.20;;
8293;SDS011;4185;41.506;24.938;2023-11-21T07:43:08;14.23;;;9.80;;
8293;SDS011;4185;41.506;24.938;2023-11-21T07:45:35;14.57;;;10.63;;
8293;SDS011;4185;41.506;24.938;2023-11-21T07:48:02;17.13;;;11.30;;
8293;SDS011;4185;41.506;24.938;2023-11-21T07:50:31;12.33;;;9.83;;
8293;SDS011;4185;41.506;24.938;2023-11-21T07:52:58;11.27;;;9.57;;
8293;SDS011;4185;41.506;24.938;2023-11-21T07:55:25;12.87;;;8.13;;
8293;SDS011;4185;41.506;24.938;2023-11-21T07:57:52;11.47;;;7.50;;
8293;SDS011;4185;41.506;24.938;2023-11-21T08:00:19;7.93;;;6.53;;
8293;SDS011;4185;41.506;24.938;2023-11-21T08:02:46;11.17;;;5.73;;
8293;SDS011;4185;41.506;24.938;2023-11-21T08:05:13;10.63;;;6.43;;
8293;SDS011;4185;41.506;24.938;2023-11-21T08:07:41;6.77;;;5.80;;
8293;SDS011;4185;41.506;24.938;2023-11-21T08:10:08;9.20;;;5.93;;
8293;SDS011;4185;41.506;24.938;2023-11-21T08:12:36;7.00;;;5.53;;
8293;SDS011;4185;41.506;24.938;2023-11-21T08:15:04;9.30;;;6.47;;
8293;SDS011;4185;41.506;24.938;2023-11-21T08:17:32;9.33;;;7.30;;
8293;SDS011;4185;41.506;24.938;2023-11-21T08:20:00;9.37;;;6.93;;
8293;SDS011;4185;41.506;24.938;2023-11-21T08:22:28;10.30;;;7.80;;
8293;SDS011;4185;41.506;24.938;2023-11-21T08:24:57;17.87;;;8.93;;
8293;SDS011;4185;41.506;24.938;2023-11-21T08:27:23;11.53;;;8.33;;
8293;SDS011;4185;41.506;24.938;2023-11-21T08:29:50;17.80;;;10.80;;
8293;SDS011;4185;41.506;24.938;2023-11-21T08:32:17;11.90;;;8.30;;
8293;SDS011;4185;41.506;24.938;2023-11-21T08:34:44;5.60;;;4.60;;
8293;SDS011;4185;41.506;24.938;2023-11-21T08:37:14;7.67;;;5.53;;
8293;SDS011;4185;41.506;24.938;2023-11-21T08:39:41;7.60;;;5.37;;
8293;SDS011;4185;41.506;24.938;2023-11-21T08:42:09;6.90;;;5.93;;
8293;SDS011;4185;41.506;24.938;2023-11-21T08:44:36;5.07;;;4.23;;
8293;SDS011;4185;41.506;24.938;2023-11-21T08:47:03;7.00;;;4.93;;
8293;SDS011;4185;41.506;24.938;2023-11-21T08:49:30;8.80;;;6.60;;
8293;SDS011;4185;41.506;24.938;2023-11-21T08:51:57;5.60;;;4.77;;
8293;SDS011;4185;41.506;24.938;2023-11-21T08:54:24;5.87;;;5.17;;
8293;SDS011;4185;41.506;24.938;2023-11-21T08:56:52;8.40;;;4.80;;
8293;SDS011;4185;41.506;24.938;2023-11-21T08:59:21;6.57;;;5.03;;
8293;SDS011;4185;41.506;24.938;2023-11-21T09:01:48;7.13;;;5.17;;
8293;SDS011;4185;41.506;24.938;2023-11-21T09:04:15;6.27;;;4.93;;
8293;SDS011;4185;41.506;24.938;2023-11-21T09:06:42;4.90;;;4.40;;
8293;SDS011;4185;41.506;24.938;2023-11-21T09:09:08;5.53;;;4.83;;
8293;SDS011;4185;41.506;24.938;2023-11-21T09:11:36;6.87;;;5.80;;
8293;SDS011;4185;41.506;24.938;2023-11-21T09:14:03;6.10;;;5.50;;
8293;SDS011;4185;41.506;24.938;2023-11-21T09:16:31;7.27;;;5.47;;
8293;SDS011;4185;41.506;24.938;2023-11-21T09:18:58;6.43;;;4.30;;
8293;SDS011;4185;41.506;24.938;2023-11-21T09:21:25;9.03;;;6.20;;
8293;SDS011;4185;41.506;24.938;2023-11-21T09:23:52;7.13;;;5.47;;
8293;SDS011;4185;41.506;24.938;2023-11-21T09:26:19;8.13;;;6.93;;
8293;SDS011;4185;41.506;24.938;2023-11-21T09:28:46;8.80;;;7.13;;
8293;SDS011;4185;41.506;24.938;2023-11-21T09:31:13;6.17;;;4.73;;
8293;SDS011;4185;41.506;24.938;2023-11-21T09:33:43;7.63;;;5.20;;
8293;SDS011;4185;41.506;24.938;2023-11-21T09:36:13;5.90;;;5.23;;
8293;SDS011;4185;41.506;24.938;2023-11-21T09:38:40;7.07;;;5.50;;
8293;SDS011;4185;41.506;24.938;2023-11-21T09:41:09;6.90;;;5.23;;
8293;SDS011;4185;41.506;24.938;2023-11-21T09:43:42;6.17;;;5.33;;
8293;SDS011;4185;41.506;24.938;2023-11-21T09:46:12;6.83;;;4.90;;
8293;SDS011;4185;41.506;24.938;2023-11-21T09:48:47;7.90;;;5.13;;
8293;SDS011;4185;41.506;24.938;2023-11-21T09:51:17;6.67;;;5.43;;
8293;SDS011;4185;41.506;24.938;2023-11-21T09:53:48;6.17;;;5.00;;
8293;SDS011;4185;41.506;24.938;2023-11-21T09:56:18;7.83;;;6.00;;
8293;SDS011;4185;41.506;24.938;2023-11-21T09:58:50;9.87;;;5.93;;
8293;SDS011;4185;41.506;24.938;2023-11-21T10:01:18;6.13;;;4.73;;
8293;SDS011;4185;41.506;24.938;2023-11-21T10:03:48;7.30;;;6.40;;
8293;SDS011;4185;41.506;24.938;2023-11-21T10:06:15;11.63;;;6.50;;
8293;SDS011;4185;41.506;24.938;2023-11-21T10:08:44;10.30;;;7.70;;
8293;SDS011;4185;41.506;24.938;2023-11-21T10:11:13;10.17;;;6.30;;
8293;SDS011;4185;41.506;24.938;2023-11-21T10:13:41;6.70;;;5.00;;
8293;SDS011;4185;41.506;24.938;2023-11-21T10:16:11;6.60;;;4.80;;
8293;SDS011;4185;41.506;24.938;2023-11-21T10:18:46;9.03;;;7.30;;
8293;SDS011;4185;41.506;24.938;2023-11-21T10:21:15;10.23;;;6.50;;
8293;SDS011;4185;41.506;24.938;2023-11-21T10:23:42;11.87;;;7.90;;
8293;SDS011;4185;41.506;24.938;2023-11-21T10:26:10;6.73;;;5.87;;
8293;SDS011;4185;41.506;24.938;2023-11-21T10:28:41;9.27;;;6.27;;
8293;SDS011;4185;41.506;24.938;2023-11-21T10:31:08;10.47;;;6.53;;
8293;SDS011;4185;41.506;24.938;2023-11-21T10:33:35;10.33;;;6.00;;
8293;SDS011;4185;41.506;24.938;2023-11-21T10:36:01;10.33;;;6.13;;
8293;SDS011;4185;41.506;24.938;2023-11-21T10:38:30;13.20;;;7.37;;
8293;SDS011;4185;41.506;24.938;2023-11-21T10:41:02;19.37;;;9.87;;
8293;SDS011;4185;41.506;24.938;2023-11-21T10:43:32;10.83;;;7.07;;
8293;SDS011;4185;41.506;24.938;2023-11-21T10:45:59;13.77;;;7.73;;
8293;SDS011;4185;41.506;24.938;2023-11-21T10:48:26;9.20;;;6.50;;
8293;SDS011;4185;41.506;24.938;2023-11-21T10:50:52;47.13;;;23.30;;
8293;SDS011;4185;41.506;24.938;2023-11-21T10:53:21;23.53;;;14.73;;
8293;SDS011;4185;41.506;24.938;2023-11-21T10:55:50;18.20;;;11.03;;
8293;SDS011;4185;41.506;24.938;2023-11-21T10:58:27;17.57;;;11.43;;
8293;SDS011;4185;41.506;24.938;2023-11-21T11:00:54;14.03;;;6.77;;
8293;SDS011;4185;41.506;24.938;2023-11-21T11:03:22;22.73;;;13.13;;
8293;SDS011;4185;41.506;24.938;2023-11-21T11:05:49;22.67;;;12.30;;
8293;SDS011;4185;41.506;24.938;2023-11-21T11:08:20;17.53;;;9.90;;
8293;SDS011;4185;41.506;24.938;2023-11-21T11:10:53;14.67;;;8.60;;
8293;SDS011;4185;41.506;24.938;2023-11-21T11:13:20;22.87;;;12.17;;
8293;SDS011;4185;41.506;24.938;2023-11-21T11:15:48;11.60;;;6.57;;
8293;SDS011;4185;41.506;24.938;2023-11-21T11:18:15;16.27;;;9.90;;
8293;SDS011;4185;41.506;24.938;2023-11-21T11:20:43;14.93;;;8.03;;
8293;SDS011;4185;41.506;24.938;2023-11-21T11:23:17;4.17;;;3.77;;
8293;SDS011;4185;41.506;24.938;2023-11-21T11:26:04;4.73;;;3.73;;
8293;SDS011;4185;41.506;24.938;2023-11-21T11:28:44;9.53;;;6.00;;
8293;SDS011;4185;41.506;24.938;2023-11-21T11:31:21;5.40;;;4.43;;
8293;SDS011;4185;41.506;24.938;2023-11-21T11:33:58;7.80;;;5.67;;
8293;SDS011;4185;41.506;24.938;2023-11-21T11:36:36;4.73;;;3.67;;
8293;SDS011;4185;41.506;24.938;2023-11-21T11:41:57;1.97;;;1.87;;
8293;SDS011;4185;41.506;24.938;2023-11-21T11:44:47;3.10;;;2.80;;
8293;SDS011;4185;41.506;24.938;2023-11-21T11:47:19;3.17;;;2.67;;
8293;SDS011;4185;41.506;24.938;2023-11-21T11:52:37;2.50;;;1.87;;
8293;SDS011;4185;41.506;24.938;2023-11-21T11:55:06;2.70;;;2.47;;
8293;SDS011;4185;41.506;24.938;2023-11-21T11:57:37;2.30;;;1.90;;
8293;SDS011;4185;41.506;24.938;2023-11-21T12:00:11;1.90;;;1.80;;
8293;SDS011;4185;41.506;24.938;2023-11-21T12:02:46;1.87;;;1.50;;
8293;SDS011;4185;41.506;24.938;2023-11-21T12:05:14;1.57;;;1.47;;
8293;SDS011;4185;41.506;24.938;2023-11-21T12:07:48;3.97;;;1.80;;
8293;SDS011;4185;41.506;24.938;2023-11-21T12:10:18;1.17;;;1.10;;
8293;SDS011;4185;41.506;24.938;2023-11-21T12:12:48;1.67;;;1.57;;
8293;SDS011;4185;41.506;24.938;2023-11-21T12:15:15;1.77;;;1.60;;
8293;SDS011;4185;41.506;24.938;2023-11-21T12:17:43;1.90;;;1.70;;
8293;SDS011;4185;41.506;24.938;2023-11-21T12:20:11;3.27;;;1.97;;
8293;SDS011;4185;41.506;24.938;2023-11-21T12:22:43;1.67;;;1.27;;
8293;SDS011;4185;41.506;24.938;2023-11-21T12:25:13;2.30;;;1.60;;
8293;SDS011;4185;41.506;24.938;2023-11-21T12:27:41;3.60;;;1.93;;
8293;SDS011;4185;41.506;24.938;2023-11-21T12:30:12;1.80;;;1.53;;
8293;SDS011;4185;41.506;24.938;2023-11-21T12:32:41;2.90;;;1.90;;
8293;SDS011;4185;41.506;24.938;2023-11-21T12:35:08;1.83;;;1.47;;
8293;SDS011;4185;41.506;24.938;2023-11-21T12:37:36;1.87;;;1.07;;
8293;SDS011;4185;41.506;24.938;2023-11-21T12:40:05;5.60;;;3.37;;
8293;SDS011;4185;41.506;24.938;2023-11-21T12:42:36;1.93;;;1.50;;
8293;SDS011;4185;41.506;24.938;2023-11-21T12:45:07;1.50;;;1.40;;
8293;SDS011;4185;41.506;24.938;2023-11-21T12:47:41;2.27;;;2.00;;
8293;SDS011;4185;41.506;24.938;2023-11-21T12:50:08;1.83;;;1.70;;
8293;SDS011;4185;41.506;24.938;2023-11-21T12:52:40;2.67;;;2.47;;
8293;SDS011;4185;41.506;24.938;2023-11-21T12:55:09;2.03;;;1.87;;
8293;SDS011;4185;41.506;24.938;2023-11-21T12:57:41;1.30;;;1.20;;
8293;SDS011;4185;41.506;24.938;2023-11-21T13:00:09;3.20;;;2.03;;
8293;SDS011;4185;41.506;24.938;2023-11-21T13:02:42;2.00;;;1.67;;
8293;SDS011;4185;41.506;24.938;2023-11-21T13:05:09;2.93;;;1.47;;
8293;SDS011;4185;41.506;24.938;2023-11-21T13:07:46;1.80;;;1.47;;
8293;SDS011;4185;41.506;24.938;2023-11-21T13:10:15;4.10;;;1.30;;
8293;SDS011;4185;41.506;24.938;2023-11-21T13:12:43;7.93;;;5.17;;
8293;SDS011;4185;41.506;24.938;2023-11-21T13:15:13;1.70;;;1.30;;
8293;SDS011;4185;41.506;24.938;2023-11-21T13:17:43;4.53;;;2.63;;
8293;SDS011;4185;41.506;24.938;2023-11-21T13:20:10;3.03;;;1.97;;
8293;SDS011;4185;41.506;24.938;2023-11-21T13:22:44;3.80;;;2.93;;
8293;SDS011;4185;41.506;24.938;2023-11-21T13:25:14;2.23;;;1.83;;
8293;SDS011;4185;41.506;24.938;2023-11-21T13:27:43;2.30;;;1.83;;
8293;SDS011;4185;41.506;24.938;2023-11-21T13:30:11;9.43;;;5.40;;
8293;SDS011;4185;41.506;24.938;2023-11-21T13:32:40;8.97;;;5.90;;
8293;SDS011;4185;41.506;24.938;2023-11-21T13:35:08;3.97;;;2.60;;
8293;SDS011;4185;41.506;24.938;2023-11-21T13:37:46;2.53;;;2.20;;
8293;SDS011;4185;41.506;24.938;2023-11-21T13:40:14;6.00;;;3.40;;
8293;SDS011;4185;41.506;24.938;2023-11-21T13:42:47;6.07;;;3.47;;
8293;SDS011;4185;41.506;24.938;2023-11-21T13:45:18;1.70;;;1.60;;
8293;SDS011;4185;41.506;24.938;2023-11-21T13:47:47;3.57;;;2.40;;
8293;SDS011;4185;41.506;24.938;2023-11-21T13:50:17;5.43;;;2.83;;
8293;SDS011;4185;41.506;24.938;2023-11-21T13:52:48;4.47;;;2.23;;
8293;SDS011;4185;41.506;24.938;2023-11-21T13:55:16;6.47;;;3.73;;
8293;SDS011;4185;41.506;24.938;2023-11-21T13:57:43;2.03;;;1.70;;
8293;SDS011;4185;41.506;24.938;2023-11-21T14:00:14;2.63;;;2.23;;
8293;SDS011;4185;41.506;24.938;2023-11-21T14:03:06;3.23;;;1.80;;
8293;SDS011;4185;41.506;24.938;2023-11-21T14:05:43;5.03;;;2.37;;
8293;SDS011;4185;41.506;24.938;2023-11-21T14:08:12;1.50;;;1.40;;
8293;SDS011;4185;41.506;24.938;2023-11-21T14:10:42;4.23;;;2.40;;
8293;SDS011;4185;41.506;24.938;2023-11-21T14:13:10;4.20;;;3.40;;
8293;SDS011;4185;41.506;24.938;2023-11-21T14:15:38;5.07;;;3.40;;
8293;SDS011;4185;41.506;24.938;2023-11-21T14:18:10;6.73;;;4.23;;
8293;SDS011;4185;41.506;24.938;2023-11-21T14:20:39;1.93;;;1.80;;
8293;SDS011;4185;41.506;24.938;2023-11-21T14:23:08;4.13;;;2.50;;
8293;SDS011;4185;41.506;24.938;2023-11-21T14:25:36;2.60;;;2.40;;
8293;SDS011;4185;41.506;24.938;2023-11-21T14:28:04;3.53;;;2.60;;
8293;SDS011;4185;41.506;24.938;2023-11-21T14:30:31;7.87;;;5.40;;
8293;SDS011;4185;41.506;24.938;2023-11-21T14:33:01;3.63;;;2.97;;
8293;SDS011;4185;41.506;24.938;2023-11-21T14:35:28;5.47;;;4.20;;
8293;SDS011;4185;41.506;24.938;2023-11-21T14:37:57;3.67;;;2.67;;
8293;SDS011;4185;41.506;24.938;2023-11-21T14:40:26;1.83;;;1.73;;
8293;SDS011;4185;41.506;24.938;2023-11-21T14:42:58;2.40;;;2.00;;
8293;SDS011;4185;41.506;24.938;2023-11-21T14:45:25;2.63;;;2.43;;
8293;SDS011;4185;41.506;24.938;2023-11-21T14:47:54;20.77;;;12.57;;
8293;SDS011;4185;41.506;24.938;2023-11-21T14:50:31;5.97;;;4.63;;
8293;SDS011;4185;41.506;24.938;2023-11-21T14:53:13;8.87;;;6.00;;
8293;SDS011;4185;41.506;24.938;2023-11-21T14:55:40;14.77;;;8.83;;
8293;SDS011;4185;41.506;24.938;2023-11-21T14:58:21;8.97;;;6.23;;
8293;SDS011;4185;41.506;24.938;2023-11-21T15:00:52;6.10;;;3.43;;
8293;SDS011;4185;41.506;24.938;2023-11-21T15:03:23;6.80;;;5.37;;
8293;SDS011;4185;41.506;24.938;2023-11-21T15:06:08;5.90;;;4.60;;
8293;SDS011;4185;41.506;24.938;2023-11-21T15:08:53;17.30;;;12.20;;